Time,TemperatureF,DewpointF,PressureIn,WindDirection,WindDirectionDegrees,WindSpeedMPH,WindSpeedGustMPH,Humidity,HourlyPrecipIn,Conditions,Clouds,dailyrainin,SoftwareType,DateUTC
2013-08-26 00:07:00,80.5,72.0,30.10,South,170,0.0,1.0,75,0.00,,,0.00,weatherlink.com 1.10,2013-08-26 05:07:00,
2013-08-26 00:22:00,80.1,72.0,30.10,South,182,0.0,1.0,76,0.00,,,0.00,weatherlink.com 1.10,2013-08-26 05:22:00,
2013-08-26 00:37:00,79.8,72.0,30.10,SSE,163,0.0,4.0,77,0.00,,,0.00,weatherlink.com 1.10,2013-08-26 05:37:00,
2013-08-26 00:52:00,79.4,72.0,30.10,SE,140,0.0,2.0,78,0.00,,,0.00,weatherlink.com 1.10,2013-08-26 05:52:00,
2013-08-26 01:07:00,79.2,72.0,30.10,SSE,157,0.0,6.0,79,0.00,,,0.00,weatherlink.com 1.10,2013-08-26 06:07:00,
2013-08-26 01:22:00,79.0,72.0,30.09,South,172,0.0,5.0,79,0.00,,,0.00,weatherlink.com 1.10,2013-08-26 06:22:00,
2013-08-26 01:37:00,78.7,72.0,30.10,SSE,158,0.0,5.0,80,0.00,,,0.00,weatherlink.com 1.10,2013-08-26 06:37:00,
2013-08-26 01:52:00,78.4,72.0,30.09,SSE,165,0.0,6.0,80,0.00,,,0.00,weatherlink.com 1.10,2013-08-26 06:52:00,
2013-08-26 02:07:00,78.0,72.0,30.09,SSE,155,0.0,5.0,81,0.00,,,0.00,weatherlink.com 1.10,2013-08-26 07:07:00,
2013-08-26 02:22:00,77.7,72.0,30.09,SSE,153,0.0,1.0,82,0.00,,,0.00,weatherlink.com 1.10,2013-08-26 07:22:00,
2013-08-26 02:37:00,77.3,71.0,30.09,SSE,153,0.0,0.0,82,0.00,,,0.00,weatherlink.com 1.10,2013-08-26 07:37:00,
2013-08-26 02:52:00,76.9,71.0,30.09,SSE,153,0.0,0.0,83,0.00,,,0.00,weatherlink.com 1.10,2013-08-26 07:52:00,
2013-08-26 03:07:00,76.5,71.0,30.09,SSE,153,0.0,1.0,84,0.00,,,0.00,weatherlink.com 1.10,2013-08-26 08:07:00,
2013-08-26 03:22:00,76.3,71.0,30.10,SSE,165,0.0,3.0,84,0.00,,,0.00,weatherlink.com 1.10,2013-08-26 08:22:00,
2013-08-26 03:37:00,76.1,71.0,30.10,South,171,0.0,2.0,84,0.00,,,0.00,weatherlink.com 1.10,2013-08-26 08:37:00,
2013-08-26 03:52:00,76.0,71.0,30.10,South,171,0.0,1.0,85,0.00,,,0.00,weatherlink.com 1.10,2013-08-26 08:52:00,
2013-08-26 04:07:00,75.6,71.0,30.10,South,171,0.0,0.0,85,0.00,,,0.00,weatherlink.com 1.10,2013-08-26 09:07:00,
2013-08-26 04:22:00,75.3,71.0,30.09,South,171,0.0,0.0,85,0.00,,,0.00,weatherlink.com 1.10,2013-08-26 09:22:00,
2013-08-26 04:37:00,74.9,71.0,30.10,South,171,0.0,0.0,86,0.00,,,0.00,weatherlink.com 1.10,2013-08-26 09:37:00,
2013-08-26 04:52:00,74.6,71.0,30.10,South,171,0.0,1.0,87,0.00,,,0.00,weatherlink.com 1.10,2013-08-26 09:52:00,
2013-08-26 05:07:00,74.4,70.0,30.10,SE,144,0.0,3.0,87,0.00,,,0.00,weatherlink.com 1.10,2013-08-26 10:07:00,
2013-08-26 05:22:00,74.4,70.0,30.10,SSE,156,1.0,3.0,87,0.00,,,0.00,weatherlink.com 1.10,2013-08-26 10:22:00,
2013-08-26 05:37:00,74.6,71.0,30.10,SSE,150,0.0,4.0,87,0.00,,,0.00,weatherlink.com 1.10,2013-08-26 10:37:00,
2013-08-26 05:52:00,74.6,70.0,30.11,SSE,157,2.0,7.0,86,0.00,,,0.00,weatherlink.com 1.10,2013-08-26 10:52:00,
2013-08-26 06:07:00,74.6,70.0,30.11,ESE,122,0.0,3.0,86,0.00,,,0.00,weatherlink.com 1.10,2013-08-26 11:07:00,
2013-08-26 06:22:00,74.4,70.0,30.11,South,169,0.0,2.0,87,0.00,,,0.00,weatherlink.com 1.10,2013-08-26 11:22:00,
2013-08-26 06:37:00,74.2,71.0,30.11,SSE,158,0.0,4.0,88,0.00,,,0.00,weatherlink.com 1.10,2013-08-26 11:37:00,
2013-08-26 06:52:00,74.0,70.0,30.12,SSE,158,0.0,0.0,88,0.00,,,0.00,weatherlink.com 1.10,2013-08-26 11:52:00,
2013-08-26 07:07:00,73.8,70.0,30.12,SSE,158,0.0,0.0,88,0.00,,,0.00,weatherlink.com 1.10,2013-08-26 12:07:00,
2013-08-26 07:22:00,73.8,70.0,30.13,SSE,163,0.0,3.0,89,0.00,,,0.00,weatherlink.com 1.10,2013-08-26 12:22:00,
2013-08-26 07:37:00,74.1,71.0,30.13,SSE,160,0.0,6.0,89,0.00,,,0.00,weatherlink.com 1.10,2013-08-26 12:37:00,
2013-08-26 07:52:00,74.5,71.0,30.13,South,175,2.0,4.0,89,0.00,,,0.00,weatherlink.com 1.10,2013-08-26 12:52:00,
2013-08-26 08:07:00,74.9,72.0,30.12,South,171,0.0,4.0,89,0.00,,,0.00,weatherlink.com 1.10,2013-08-26 13:07:00,
2013-08-26 08:22:00,75.5,72.0,30.13,South,188,4.0,7.0,88,0.00,,,0.00,weatherlink.com 1.10,2013-08-26 13:22:00,
2013-08-26 08:37:00,76.2,72.0,30.13,SSW,200,4.0,7.0,86,0.00,,,0.00,weatherlink.com 1.10,2013-08-26 13:37:00,
2013-08-26 08:52:00,77.1,72.0,30.13,SSE,153,8.0,10.0,84,0.00,,,0.00,weatherlink.com 1.10,2013-08-26 13:52:00,
2013-08-26 09:07:00,78.0,72.0,30.13,SSW,196,2.0,11.0,82,0.00,,,0.00,weatherlink.com 1.10,2013-08-26 14:07:00,
2013-08-26 09:22:00,79.2,72.0,30.14,SSE,158,3.0,10.0,79,0.00,,,0.00,weatherlink.com 1.10,2013-08-26 14:22:00,
2013-08-26 09:38:00,80.7,73.0,30.14,SSE,162,3.0,9.0,77,0.00,,,0.00,weatherlink.com 1.10,2013-08-26 14:38:00,
2013-08-26 09:53:00,81.5,73.0,30.14,South,180,7.0,10.0,75,0.00,,,0.00,weatherlink.com 1.10,2013-08-26 14:53:00,
2013-08-26 10:08:00,82.5,73.0,30.14,SSW,201,0.0,10.0,74,0.00,,,0.00,weatherlink.com 1.10,2013-08-26 15:08:00,
2013-08-26 10:23:00,83.2,73.0,30.14,SSW,195,0.0,9.0,72,0.00,,,0.00,weatherlink.com 1.10,2013-08-26 15:23:00,
2013-08-26 10:38:00,84.3,74.0,30.14,South,176,0.0,7.0,70,0.00,,,0.00,weatherlink.com 1.10,2013-08-26 15:38:00,
2013-08-26 10:53:00,85.5,74.0,30.15,South,187,0.0,9.0,69,0.00,,,0.00,weatherlink.com 1.10,2013-08-26 15:53:00,
2013-08-26 11:08:00,86.2,74.0,30.14,SSW,210,0.0,6.0,67,0.00,,,0.00,weatherlink.com 1.10,2013-08-26 16:08:00,
2013-08-26 11:23:00,86.6,74.0,30.15,SSW,196,1.0,6.0,66,0.00,,,0.00,weatherlink.com 1.10,2013-08-26 16:23:00,
2013-08-26 11:38:00,88.3,74.0,30.14,SE,140,3.0,8.0,63,0.00,,,0.00,weatherlink.com 1.10,2013-08-26 16:38:00,
2013-08-26 11:53:00,87.9,75.0,30.14,South,171,3.0,5.0,65,0.00,,,0.00,weatherlink.com 1.10,2013-08-26 16:53:00,
2013-08-26 12:08:00,89.0,74.0,30.14,SSW,209,0.0,5.0,62,0.00,,,0.00,weatherlink.com 1.10,2013-08-26 17:08:00,
2013-08-26 12:23:00,89.8,75.0,30.13,South,173,0.0,5.0,61,0.00,,,0.00,weatherlink.com 1.10,2013-08-26 17:23:00,
2013-08-26 12:38:00,90.2,74.0,30.13,SSW,192,5.0,8.0,60,0.00,,,0.00,weatherlink.com 1.10,2013-08-26 17:38:00,
2013-08-26 12:53:00,90.0,73.0,30.12,South,169,0.0,9.0,58,0.00,,,0.00,weatherlink.com 1.10,2013-08-26 17:53:00,
2013-08-26 13:08:00,90.1,73.0,30.12,SSW,208,3.0,9.0,58,0.00,,,0.00,weatherlink.com 1.10,2013-08-26 18:08:00,
2013-08-26 13:23:00,90.4,73.0,30.12,SSW,213,2.0,7.0,56,0.00,,,0.00,weatherlink.com 1.10,2013-08-26 18:23:00,
2013-08-26 13:38:00,90.8,73.0,30.12,SSE,159,2.0,7.0,56,0.00,,,0.00,weatherlink.com 1.10,2013-08-26 18:38:00,
2013-08-26 13:53:00,91.4,74.0,30.11,SSE,148,6.0,9.0,56,0.00,,,0.00,weatherlink.com 1.10,2013-08-26 18:53:00,
2013-08-26 14:08:00,91.4,72.0,30.11,SW,226,4.0,8.0,54,0.00,,,0.00,weatherlink.com 1.10,2013-08-26 19:08:00,
2013-08-26 14:23:00,91.6,72.0,30.10,SE,126,0.0,9.0,53,0.00,,,0.00,weatherlink.com 1.10,2013-08-26 19:23:00,
2013-08-26 14:38:00,92.0,72.0,30.09,SSE,166,3.0,7.0,53,0.00,,,0.00,weatherlink.com 1.10,2013-08-26 19:38:00,
2013-08-26 14:53:00,91.8,73.0,30.08,South,189,3.0,10.0,55,0.00,,,0.00,weatherlink.com 1.10,2013-08-26 19:53:00,
2013-08-26 15:08:00,91.8,73.0,30.08,SE,142,3.0,9.0,55,0.00,,,0.00,weatherlink.com 1.10,2013-08-26 20:08:00,
2013-08-26 15:23:00,92.0,73.0,30.07,SSE,151,1.0,11.0,54,0.00,,,0.00,weatherlink.com 1.10,2013-08-26 20:23:00,
2013-08-26 15:38:00,92.0,73.0,30.07,SSE,148,2.0,8.0,54,0.00,,,0.00,weatherlink.com 1.10,2013-08-26 20:38:00,
2013-08-26 15:53:00,92.2,73.0,30.07,SSW,198,3.0,7.0,53,0.00,,,0.00,weatherlink.com 1.10,2013-08-26 20:53:00,
2013-08-26 16:08:00,92.2,73.0,30.06,SSW,210,1.0,10.0,53,0.00,,,0.00,weatherlink.com 1.10,2013-08-26 21:08:00,
2013-08-26 16:23:00,92.0,74.0,30.06,South,182,2.0,6.0,55,0.00,,,0.00,weatherlink.com 1.10,2013-08-26 21:23:00,
2013-08-26 16:38:00,91.9,72.0,30.05,WSW,245,3.0,8.0,53,0.00,,,0.00,weatherlink.com 1.10,2013-08-26 21:38:00,
2013-08-26 16:53:00,92.2,74.0,30.05,SSE,161,4.0,8.0,55,0.00,,,0.00,weatherlink.com 1.10,2013-08-26 21:53:00,
2013-08-26 17:08:00,91.3,72.0,30.05,ESE,123,1.0,7.0,54,0.00,,,0.00,weatherlink.com 1.10,2013-08-26 22:08:00,
2013-08-26 17:23:00,91.4,72.0,30.04,South,173,0.0,8.0,54,0.00,,,0.00,weatherlink.com 1.10,2013-08-26 22:23:00,
2013-08-26 17:38:00,91.3,72.0,30.04,ESE,123,0.0,6.0,53,0.00,,,0.00,weatherlink.com 1.10,2013-08-26 22:38:00,
2013-08-26 17:53:00,90.9,73.0,30.04,South,191,0.0,5.0,56,0.00,,,0.00,weatherlink.com 1.10,2013-08-26 22:53:00,
2013-08-26 18:09:00,90.8,73.0,30.04,SSE,160,0.0,5.0,56,0.00,,,0.00,weatherlink.com 1.10,2013-08-26 23:09:00,
2013-08-26 18:24:00,90.4,73.0,30.03,SSW,213,0.0,6.0,57,0.00,,,0.00,weatherlink.com 1.10,2013-08-26 23:24:00,
2013-08-26 18:39:00,89.8,73.0,30.03,SSE,150,0.0,4.0,58,0.00,,,0.00,weatherlink.com 1.10,2013-08-26 23:39:00,
2013-08-26 18:54:00,89.3,72.0,30.03,SSW,207,0.0,5.0,57,0.00,,,0.00,weatherlink.com 1.10,2013-08-26 23:54:00,
2013-08-26 19:09:00,89.1,73.0,30.03,SSW,207,0.0,0.0,59,0.00,,,0.00,weatherlink.com 1.10,2013-08-27 00:09:00,
2013-08-26 19:24:00,88.6,73.0,30.03,SSW,207,0.0,0.0,60,0.00,,,0.00,weatherlink.com 1.10,2013-08-27 00:24:00,
2013-08-26 19:39:00,88.0,73.0,30.02,SSW,207,0.0,0.0,62,0.00,,,0.00,weatherlink.com 1.10,2013-08-27 00:39:00,
2013-08-26 19:54:00,87.2,73.0,30.03,SSW,207,0.0,0.0,63,0.00,,,0.00,weatherlink.com 1.10,2013-08-27 00:54:00,
2013-08-26 20:09:00,86.4,73.0,30.03,SSW,207,0.0,0.0,64,0.00,,,0.00,weatherlink.com 1.10,2013-08-27 01:09:00,
2013-08-26 20:24:00,85.5,72.0,30.03,SSW,207,0.0,0.0,65,0.00,,,0.00,weatherlink.com 1.10,2013-08-27 01:24:00,
2013-08-26 20:39:00,84.6,72.0,30.04,SSW,207,0.0,0.0,65,0.00,,,0.00,weatherlink.com 1.10,2013-08-27 01:39:00,
2013-08-26 20:54:00,83.8,71.0,30.04,SSW,207,0.0,0.0,66,0.00,,,0.00,weatherlink.com 1.10,2013-08-27 01:54:00,
2013-08-26 21:09:00,83.2,71.0,30.04,SSW,207,0.0,0.0,67,0.00,,,0.00,weatherlink.com 1.10,2013-08-27 02:09:00,
2013-08-26 21:24:00,82.6,71.0,30.05,SSW,207,0.0,0.0,67,0.00,,,0.00,weatherlink.com 1.10,2013-08-27 02:24:00,
2013-08-26 21:39:00,82.0,70.0,30.05,SSW,207,0.0,0.0,67,0.00,,,0.00,weatherlink.com 1.10,2013-08-27 02:39:00,
2013-08-26 21:54:00,81.6,69.0,30.05,SSW,207,0.0,0.0,66,0.00,,,0.00,weatherlink.com 1.10,2013-08-27 02:54:00,
2013-08-26 22:09:00,81.4,69.0,30.05,SSW,200,0.0,0.0,65,0.00,,,0.00,weatherlink.com 1.10,2013-08-27 03:09:00,
2013-08-26 22:24:00,81.2,68.0,30.05,SSW,200,0.0,0.0,65,0.00,,,0.00,weatherlink.com 1.10,2013-08-27 03:24:00,
2013-08-26 22:39:00,81.0,69.0,30.05,SSW,200,0.0,0.0,66,0.00,,,0.00,weatherlink.com 1.10,2013-08-27 03:39:00,
2013-08-26 22:54:00,80.7,69.0,30.05,SSW,200,0.0,0.0,68,0.00,,,0.00,weatherlink.com 1.10,2013-08-27 03:54:00,
2013-08-26 23:09:00,80.4,69.0,30.04,SSW,198,0.0,0.0,68,0.00,,,0.00,weatherlink.com 1.10,2013-08-27 04:09:00,
2013-08-26 23:24:00,80.2,69.0,30.04,ESE,116,0.0,0.0,68,0.00,,,0.00,weatherlink.com 1.10,2013-08-27 04:24:00,
2013-08-26 23:39:00,79.9,68.0,30.04,SSE,162,0.0,0.0,68,0.00,,,0.00,weatherlink.com 1.10,2013-08-27 04:39:00,
2013-08-26 23:54:00,79.6,68.0,30.04,SE,142,0.0,1.0,68,0.00,,,0.00,weatherlink.com 1.10,2013-08-27 04:54:00,